Flight Track Log - Related Links

Times and Time Zones

All times are in EDT time to prevent confusion due to time zone crossing. See the ASQ5299 flight status page for this flight to view local times or setup timezone preferences in your user account.

Time Position Orientation Groundspeed Altitude Reporting Facility
EDT Latitude Longitude Course Direction KTS MPH feet Rate Location/Type
Mon 05:45:31 PM 33.6667 -84.5167 270° West 239 275 3,300  Level Atlanta TRACON
Mon 05:46:37 PM 33.6833 -84.6167 281° West 275 316 6,400 2,580 Climbing Atlanta TRACON
Mon 05:48:44 PM 33.6728 -84.8150 266° West 275 316 11,600 2,374 Climbing Atlanta Center
Mon 05:49:44 PM 33.6306 -84.9019 240° Southwest 294 338 13,800 1,950 Climbing Atlanta Center
Mon 05:50:00 PM 33.8001 -84.3971 270° West  Level FlightAware Approximate
Mon 05:50:44 PM 33.5903 -84.9839 239° Southwest 317 365 15,500  Level Atlanta Center
Mon 05:51:44 PM 33.5456 -85.0756 240° Southwest 322 371 17,300 1,700 Climbing Atlanta Center
Mon 05:52:44 PM 33.4989 -85.1672 239° Southwest 327 376 18,900 1,300 Climbing Atlanta Center
Mon 05:53:44 PM 33.4625 -85.2789 249° West 340 391 19,900 550 Climbing Atlanta Center
Mon 05:54:44 PM 33.4403 -85.3981 257° West 366 421 20,000 50 Climbing Atlanta Center
Mon 05:55:44 PM 33.4075 -85.5269 253° West 395 455 20,000  Level Atlanta Center
Mon 05:56:44 PM 33.3292 -85.6125 222° Southwest 414 476 20,000  Level Atlanta Center
Mon 05:57:44 PM 33.2194 -85.6950 212° Southwest 416 479 20,000 -500 Level Atlanta Center
Mon 05:58:44 PM 33.1142 -85.7725 212° Southwest 437 503 19,000 -1,500 Descending Atlanta Center
Mon 05:59:44 PM 33.0169 -85.8497 214° Southwest 437 503 17,000 -2,200 Descending Atlanta Center
Mon 06:00:44 PM 32.9200 -85.9219 212° Southwest 431 496 14,600 -2,300 Descending Atlanta Center
Mon 06:01:44 PM 32.8250 -85.9917 212° Southwest 420 483 12,400 -1,800 Descending Atlanta Center
Mon 06:02:44 PM 32.7403 -86.0564 213° Southwest 397 457 11,000 -1,550 Descending Atlanta Center
Mon 06:03:44 PM 32.6747 -86.1142 217° Southwest 348 400 9,300 -1,800 Descending Atlanta Center
Mon 06:04:44 PM 32.6172 -86.1744 221° Southwest 303 349 7,400 -1,950 Descending Atlanta Center
Mon 06:05:44 PM 32.5597 -86.2372 223° Southwest 286 329 5,400 -1,700 Descending Atlanta Center
Mon 06:06:44 PM 32.5067 -86.2975 224° Southwest 275 316 4,000 -1,050 Descending Atlanta Center
Mon 06:07:44 PM 32.4511 -86.3575 222° Southwest 275 316 3,300 -950 Descending Atlanta Center
Mon 06:08:44 PM 32.3936 -86.4175 221° Southwest 275 316 2,100 -1,200 Descending Atlanta Center
Mon 06:10:00 PM 32.3006 -86.3940 154° Southeast  Level Estimated
Mon 06:17:00 PM 32.3006 -86.3940 328° Northwest  Level Estimated
Mon 06:18:00 PM 32.3006 -86.3940 328° Northwest  Level Estimated

Login

Don't have an account? Register now (free) for customized features, flight alerts, and more!